Time;durP1;ratioP1;P1;durP2;ratioP2;P2;SDS_P1;SDS_P2;PMS_P1;PMS_P2;Temp;Humidity;BMP_temperature;BMP_pressure;BME280_temperature;BME280_humidity;BME280_pressure;Samples;Min_cycle;Max_cycle;Signal;HPM_P1;HPM_P2
2023/11/19 00:02:19;;;;;;;3.47;1.58;;;4.90;99.20;;;;;;5076058;28;20174;-76
2023/11/19 00:04:45;;;;;;;5.70;2.22;;;5.00;99.10;;;;;;5076659;28;20032;-76
2023/11/19 00:07:13;;;;;;;4.82;2.00;;;5.00;99.20;;;;;;5077329;28;20036;-76
2023/11/19 00:09:39;;;;;;;6.72;2.17;;;4.80;98.90;;;;;;5075917;28;20099;-76
2023/11/19 00:12:05;;;;;;;2.35;1.20;;;4.80;98.80;;;;;;5076962;28;20039;-76
2023/11/19 00:14:31;;;;;;;2.88;1.10;;;4.80;99.00;;;;;;5076843;28;20028;-76
2023/11/19 00:16:57;;;;;;;2.70;1.10;;;4.90;98.60;;;;;;5078497;28;20047;-76
2023/11/19 00:19:23;;;;;;;6.53;1.50;;;5.00;98.70;;;;;;5077778;28;20039;-76
2023/11/19 00:21:48;;;;;;;4.07;1.30;;;5.10;98.00;;;;;;5081361;28;20082;-76
2023/11/19 00:24:16;;;;;;;3.10;1.50;;;5.20;97.60;;;;;;5080846;28;20059;-76
2023/11/19 00:26:42;;;;;;;3.17;1.38;;;5.30;97.80;;;;;;5081416;28;20561;-76
2023/11/19 00:29:08;;;;;;;4.60;1.15;;;5.30;98.40;;;;;;5080552;28;20397;-76
2023/11/19 00:31:34;;;;;;;4.20;1.48;;;5.50;97.50;;;;;;5080795;28;20032;-76
2023/11/19 00:34:01;;;;;;;5.57;1.77;;;5.50;98.20;;;;;;5081065;28;20036;-76
2023/11/19 00:36:28;;;;;;;3.85;1.80;;;5.50;98.00;;;;;;5080684;28;20541;-76
2023/11/19 00:38:54;;;;;;;4.45;1.77;;;5.50;97.90;;;;;;5079966;28;20059;-76
2023/11/19 00:41:19;;;;;;;5.38;2.42;;;5.50;98.40;;;;;;5081010;28;20115;-76
2023/11/19 00:43:45;;;;;;;4.00;1.90;;;5.40;98.70;;;;;;5081266;28;20371;-76
2023/11/19 00:46:11;;;;;;;3.95;2.00;;;5.40;98.50;;;;;;5080421;28;20039;-76
2023/11/19 00:48:37;;;;;;;4.05;2.08;;;5.40;98.40;;;;;;5079765;28;20749;-76
2023/11/19 00:51:04;;;;;;;5.35;2.22;;;5.40;98.90;;;;;;5080260;28;20036;-76
2023/11/19 00:53:30;;;;;;;4.72;2.17;;;5.50;99.40;;;;;;5080795;28;20059;-76
2023/11/19 00:55:56;;;;;;;4.97;2.22;;;5.50;99.30;;;;;;5080807;28;20024;-76
2023/11/19 00:58:22;;;;;;;4.13;2.22;;;5.40;99.20;;;;;;5079228;28;20142;-76
2023/11/19 01:00:48;;;;;;;5.20;2.50;;;5.30;99.00;;;;;;5080863;28;20162;-76
2023/11/19 01:03:15;;;;;;;5.47;2.40;;;5.40;99.10;;;;;;5079445;28;20047;-76
2023/11/19 01:05:41;;;;;;;4.20;2.33;;;5.40;99.10;;;;;;5080000;28;20111;-76
2023/11/19 01:08:07;;;;;;;6.68;2.10;;;5.20;99.70;;;;;;5080225;28;20024;-76
2023/11/19 01:10:33;;;;;;;4.72;2.28;;;5.30;99.90;;;;;;5078795;28;21257;-76
2023/11/19 01:12:59;;;;;;;3.90;1.98;;;5.30;99.50;;;;;;5080573;28;22088;-76
2023/11/19 01:15:26;;;;;;;3.25;1.90;;;5.30;98.90;;;;;;5081264;28;20163;-76
2023/11/19 01:17:51;;;;;;;3.28;1.48;;;5.40;98.60;;;;;;5080718;28;20047;-76
2023/11/19 01:20:17;;;;;;;8.25;1.83;;;5.60;98.60;;;;;;5077477;28;20036;-76
2023/11/19 01:22:43;;;;;;;2.67;1.15;;;5.60;98.20;;;;;;5079533;28;20028;-76
2023/11/19 01:25:09;;;;;;;3.13;1.02;;;5.70;98.50;;;;;;5080769;28;20489;-76
2023/11/19 01:27:35;;;;;;;2.53;0.90;;;5.70;99.70;;;;;;5079855;28;20031;-76
2023/11/19 01:30:05;;;;;;;2.17;0.90;;;5.60;99.80;;;;;;5079452;28;20104;-76
2023/11/19 01:32:31;;;;;;;2.22;1.00;;;5.60;99.70;;;;;;5079750;28;20063;-76
2023/11/19 01:34:56;;;;;;;3.85;1.27;;;5.50;99.90;;;;;;5079735;28;20436;-76
2023/11/19 01:37:22;;;;;;;3.22;1.10;;;5.40;99.00;;;;;;5080436;28;20139;-76
2023/11/19 01:39:48;;;;;;;4.00;1.30;;;5.50;99.10;;;;;;5079289;28;20066;-76
2023/11/19 01:42:15;;;;;;;2.58;1.20;;;5.50;99.20;;;;;;5080086;28;20039;-76
2023/11/19 01:44:41;;;;;;;4.38;1.30;;;5.50;99.40;;;;;;5080200;28;20028;-76
2023/11/19 01:47:08;;;;;;;2.67;1.35;;;5.60;99.30;;;;;;5079749;28;20043;-76
2023/11/19 01:49:34;;;;;;;2.88;1.50;;;5.60;99.40;;;;;;5077290;28;20039;-76
2023/11/19 01:52:01;;;;;;;3.78;1.48;;;5.50;99.90;;;;;;5080190;28;20478;-76
2023/11/19 01:54:28;;;;;;;3.55;1.00;;;5.40;99.90;;;;;;5080174;28;20090;-76
2023/11/19 01:56:56;;;;;;;4.70;1.75;;;5.30;99.90;;;;;;5079516;28;20042;-76
2023/11/19 01:59:26;;;;;;;3.38;1.50;;;5.30;99.70;;;;;;5076600;28;20036;-76
2023/11/19 02:01:53;;;;;;;5.55;1.80;;;5.40;99.70;;;;;;5079670;28;20035;-76
2023/11/19 02:04:20;;;;;;;4.97;1.92;;;5.40;99.80;;;;;;5080247;28;20494;-76
2023/11/19 02:06:49;;;;;;;3.83;1.90;;;5.20;99.90;;;;;;5079555;28;20447;-76
2023/11/19 02:09:19;;;;;;;5.68;2.35;;;5.10;99.90;;;;;;5078385;28;20043;-76
2023/11/19 02:11:49;;;;;;;5.00;2.30;;;5.10;99.90;;;;;;5079856;28;20027;-76
2023/11/19 02:14:15;;;;;;;4.80;2.20;;;5.10;99.90;;;;;;5079534;28;20507;-76
2023/11/19 02:16:41;;;;;;;4.60;1.95;;;5.00;99.90;;;;;;5079053;28;20042;-76
2023/11/19 02:19:08;;;;;;;3.58;1.88;;;5.00;99.90;;;;;;5077867;28;20032;-76
2023/11/19 02:21:33;;;;;;;3.38;1.50;;;4.90;99.90;;;;;;5078361;28;20514;-76
2023/11/19 02:24:00;;;;;;;4.60;1.85;;;5.00;99.90;;;;;;5079758;28;20035;-76
2023/11/19 02:26:38;;;;;;;4.00;2.05;;;4.90;99.90;;;;;;5079476;28;20085;-76
2023/11/19 02:29:04;;;;;;;5.43;2.28;;;4.90;99.90;;;;;;5077889;28;20047;-76
2023/11/19 02:31:30;;;;;;;6.80;2.33;;;4.60;99.90;;;;;;5078755;28;20144;-76
2023/11/19 02:33:55;;;;;;;6.40;1.58;;;4.70;99.90;;;;;;5079527;28;20051;-76
2023/11/19 02:36:21;;;;;;;4.50;2.00;;;4.80;99.90;;;;;;5079066;28;20042;-76
2023/11/19 02:38:47;;;;;;;5.28;2.28;;;4.80;99.90;;;;;;5080081;28;20030;-76
2023/11/19 02:41:14;;;;;;;4.43;2.08;;;4.90;99.90;;;;;;5078336;28;20078;-76
2023/11/19 02:43:39;;;;;;;3.38;1.55;;;5.00;99.90;;;;;;5079192;28;20064;-76
2023/11/19 02:46:07;;;;;;;4.80;2.33;;;4.90;99.90;;;;;;5079066;28;20067;-76
2023/11/19 02:48:35;;;;;;;4.75;2.30;;;4.90;99.80;;;;;;5078202;28;20024;-76
2023/11/19 02:51:04;;;;;;;2.78;1.50;;;5.00;99.10;;;;;;5078467;28;20486;-76
2023/11/19 02:53:31;;;;;;;4.60;1.60;;;4.90;99.50;;;;;;5079983;28;21415;-76
2023/11/19 02:56:11;;;;;;;3.03;1.45;;;4.90;99.10;;;;;;5079594;28;20101;-76
2023/11/19 02:58:38;;;;;;;3.50;1.50;;;5.10;99.00;;;;;;5078963;28;20020;-76
2023/11/19 03:01:19;;;;;;;2.25;1.10;;;4.80;99.40;;;;;;5078346;28;20032;-76
2023/11/19 03:03:49;;;;;;;3.38;1.30;;;4.80;99.20;;;;;;5079014;28;20104;-76
2023/11/19 03:06:14;;;;;;;3.67;1.75;;;4.80;99.10;;;;;;5082453;28;20048;-76
2023/11/19 03:08:40;;;;;;;7.28;1.80;;;4.70;99.50;;;;;;5082501;28;20039;-76
2023/11/19 03:11:06;;;;;;;3.30;1.27;;;4.80;99.30;;;;;;5081747;28;20679;-76
2023/11/19 03:13:31;;;;;;;3.63;1.42;;;4.80;99.00;;;;;;5082605;28;20384;-76
2023/11/19 03:15:57;;;;;;;4.43;1.27;;;4.90;99.00;;;;;;5082468;28;20084;-77
2023/11/19 03:18:23;;;;;;;3.35;1.38;;;4.80;99.10;;;;;;5083085;28;20493;-76
2023/11/19 03:20:49;;;;;;;2.97;1.33;;;4.80;99.20;;;;;;5079655;28;20075;-76
2023/11/19 03:23:15;;;;;;;2.83;1.27;;;4.80;99.00;;;;;;5082683;28;20020;-76
2023/11/19 03:25:41;;;;;;;3.15;1.40;;;4.80;99.10;;;;;;5082537;28;20035;-76
2023/11/19 03:28:06;;;;;;;3.28;1.30;;;4.70;99.50;;;;;;5082131;28;20042;-76
2023/11/19 03:30:32;;;;;;;3.00;1.65;;;4.60;99.50;;;;;;5081119;28;20126;-76
2023/11/19 03:32:59;;;;;;;2.75;1.08;;;4.60;99.50;;;;;;5082686;28;20088;-76
2023/11/19 03:35:25;;;;;;;1.77;0.93;;;4.30;99.90;;;;;;5082035;28;20093;-76
2023/11/19 03:37:51;;;;;;;3.95;1.60;;;4.30;99.90;;;;;;5082159;28;20620;-76
2023/11/19 03:40:18;;;;;;;3.38;1.45;;;4.50;99.40;;;;;;5080443;28;20116;-76
2023/11/19 03:42:45;;;;;;;4.20;1.63;;;4.60;99.60;;;;;;5082298;28;20028;-76
2023/11/19 03:45:10;;;;;;;3.45;1.33;;;4.60;98.90;;;;;;5081658;28;20024;-76
2023/11/19 03:47:36;;;;;;;2.25;1.23;;;4.60;98.90;;;;;;5082405;28;20029;-76
2023/11/19 03:50:02;;;;;;;3.38;1.63;;;4.60;98.90;;;;;;5080479;28;20115;-76
2023/11/19 03:52:29;;;;;;;2.85;1.42;;;4.80;98.30;;;;;;5082089;28;20012;-76
2023/11/19 03:54:55;;;;;;;3.55;1.25;;;4.80;99.10;;;;;;5081456;28;20036;-76
2023/11/19 03:57:21;;;;;;;2.90;1.27;;;4.60;99.10;;;;;;5081456;28;20508;-76
2023/11/19 03:59:47;;;;;;;2.50;1.23;;;4.50;99.10;;;;;;5080366;28;20063;-76
2023/11/19 04:02:13;;;;;;;2.58;1.13;;;4.30;99.80;;;;;;5079477;28;20063;-76
2023/11/19 04:04:39;;;;;;;3.20;1.15;;;4.10;99.90;;;;;;5075349;28;20058;-76
2023/11/19 04:07:05;;;;;;;2.75;1.27;;;4.10;99.90;;;;;;5077439;28;20032;-76
2023/11/19 04:09:32;;;;;;;3.33;1.73;;;4.20;99.90;;;;;;5075996;28;20028;-76
2023/11/19 04:11:59;;;;;;;3.85;1.15;;;3.90;99.90;;;;;;5076948;28;20565;-76
2023/11/19 04:14:24;;;;;;;2.97;1.25;;;3.80;99.90;;;;;;5076373;28;20020;-76
2023/11/19 04:16:51;;;;;;;2.45;0.93;;;3.90;99.90;;;;;;5074598;28;20043;-76
2023/11/19 04:19:17;;;;;;;2.85;1.13;;;3.90;99.90;;;;;;5076696;28;20047;-76
2023/11/19 04:21:43;;;;;;;2.25;0.90;;;3.90;99.90;;;;;;5072781;28;20051;-76
2023/11/19 04:24:14;;;;;;;3.20;1.33;;;4.00;99.90;;;;;;5076493;28;20393;-76
2023/11/19 04:26:44;;;;;;;3.22;1.23;;;4.10;99.90;;;;;;5077370;28;20488;-76
2023/11/19 04:29:12;;;;;;;3.95;1.10;;;4.20;99.90;;;;;;5077609;28;20126;-76
2023/11/19 04:31:37;;;;;;;4.43;1.17;;;4.20;99.60;;;;;;5075900;28;20036;-76
2023/11/19 04:34:03;;;;;;;1.80;0.93;;;4.20;99.50;;;;;;5074219;28;20032;-76
2023/11/19 04:36:29;;;;;;;1.95;0.95;;;4.20;99.60;;;;;;5073499;28;20147;-76
2023/11/19 04:38:55;;;;;;;4.13;1.40;;;4.10;99.90;;;;;;5074378;28;20040;-75
2023/11/19 04:41:21;;;;;;;2.78;1.25;;;4.00;99.90;;;;;;5072743;28;20032;-76
2023/11/19 04:43:47;;;;;;;1.92;0.95;;;4.10;99.90;;;;;;5073828;28;20047;-76
2023/11/19 04:46:12;;;;;;;2.95;1.20;;;4.10;99.80;;;;;;5073417;28;20041;-76
2023/11/19 04:48:38;;;;;;;3.13;1.33;;;4.00;99.90;;;;;;5073752;28;20454;-76
2023/11/19 04:51:07;;;;;;;3.03;1.17;;;4.00;99.90;;;;;;5072225;28;20036;-75
2023/11/19 04:53:33;;;;;;;3.10;1.30;;;3.90;99.90;;;;;;5073933;28;20114;-75
2023/11/19 04:55:59;;;;;;;1.90;1.00;;;3.80;99.90;;;;;;5073453;28;20046;-76
2023/11/19 04:58:24;;;;;;;3.15;1.17;;;4.10;99.70;;;;;;5073785;28;20020;-76
2023/11/19 05:00:50;;;;;;;3.15;1.30;;;4.20;99.60;;;;;;5071448;28;20034;-76
2023/11/19 05:03:16;;;;;;;2.38;1.13;;;4.20;99.60;;;;;;5069639;28;20056;-76
2023/11/19 05:05:41;;;;;;;5.97;1.20;;;4.30;99.30;;;;;;5076189;28;20031;-75
2023/11/19 05:08:07;;;;;;;2.60;1.15;;;4.30;99.20;;;;;;5076630;28;20031;-76
2023/11/19 05:10:33;;;;;;;2.92;1.08;;;4.40;98.90;;;;;;5074946;28;20042;-75
2023/11/19 05:12:58;;;;;;;3.72;1.45;;;4.60;98.30;;;;;;5077075;28;20039;-75
2023/11/19 05:15:24;;;;;;;3.17;1.38;;;4.50;98.70;;;;;;5076646;28;20047;-75
2023/11/19 05:17:50;;;;;;;2.03;1.20;;;4.40;99.00;;;;;;5077098;28;20036;-76
2023/11/19 05:20:16;;;;;;;3.00;1.10;;;4.30;99.10;;;;;;5074750;28;20032;-76
2023/11/19 05:22:42;;;;;;;2.35;1.13;;;4.20;99.20;;;;;;5074382;28;20412;-75
2023/11/19 05:25:08;;;;;;;2.92;1.20;;;4.30;99.10;;;;;;5072847;28;20059;-76
2023/11/19 05:27:35;;;;;;;4.38;1.30;;;4.20;99.60;;;;;;5076016;28;21115;-76
2023/11/19 05:30:02;;;;;;;3.40;1.23;;;4.10;99.90;;;;;;5075299;28;20629;-76
2023/11/19 05:32:28;;;;;;;2.70;1.33;;;4.10;99.90;;;;;;5075658;28;20040;-76
2023/11/19 05:34:53;;;;;;;3.75;1.60;;;4.10;99.80;;;;;;5075966;28;20375;-75
2023/11/19 05:37:20;;;;;;;5.32;1.10;;;4.10;99.90;;;;;;5075919;28;20529;-76
2023/11/19 05:39:45;;;;;;;3.53;1.55;;;4.00;99.90;;;;;;5075958;28;20723;-75
2023/11/19 05:42:11;;;;;;;2.35;1.35;;;4.00;99.90;;;;;;5075407;28;20517;-76
2023/11/19 05:44:37;;;;;;;3.60;1.33;;;3.90;99.80;;;;;;5075971;28;20035;-76
2023/11/19 05:47:04;;;;;;;5.00;2.45;;;3.80;99.90;;;;;;5077065;28;20032;-75
2023/11/19 05:49:29;;;;;;;3.20;1.35;;;3.80;99.90;;;;;;5074438;28;20020;-75
2023/11/19 05:51:55;;;;;;;2.25;1.00;;;3.70;99.90;;;;;;5073247;28;20043;-75
2023/11/19 05:54:21;;;;;;;3.55;1.30;;;3.70;99.90;;;;;;5075715;28;20738;-75
2023/11/19 05:56:53;;;;;;;3.90;1.63;;;3.80;99.90;;;;;;5076073;28;20038;-75
2023/11/19 05:59:19;;;;;;;4.13;1.42;;;3.80;99.90;;;;;;5075806;28;20024;-74
2023/11/19 06:01:45;;;;;;;2.85;1.40;;;3.80;99.90;;;;;;5075020;28;20024;-77
2023/11/19 06:04:11;;;;;;;4.45;1.70;;;3.70;99.90;;;;;;5074836;28;20200;-74
2023/11/19 06:06:37;;;;;;;3.35;1.50;;;3.80;99.90;;;;;;5073312;28;20024;-74
2023/11/19 06:09:04;;;;;;;2.58;1.23;;;3.90;99.90;;;;;;5073792;28;20028;-74
2023/11/19 06:11:29;;;;;;;4.10;1.88;;;3.70;99.90;;;;;;5074413;28;20124;-74
2023/11/19 06:13:56;;;;;;;4.82;1.83;;;3.70;99.90;;;;;;5075845;28;20031;-74
2023/11/19 06:16:21;;;;;;;4.40;2.00;;;3.60;99.90;;;;;;5075566;28;20055;-73
2023/11/19 06:18:47;;;;;;;5.65;1.92;;;3.60;99.90;;;;;;5075479;28;20032;-74
2023/11/19 06:21:13;;;;;;;4.43;1.75;;;3.60;99.90;;;;;;5073194;28;20858;-74
2023/11/19 06:23:39;;;;;;;3.47;1.67;;;3.70;99.90;;;;;;5074815;28;20032;-74
2023/11/19 06:26:05;;;;;;;6.20;2.13;;;3.80;99.90;;;;;;5075536;28;20028;-74
2023/11/19 06:28:31;;;;;;;4.43;2.00;;;3.90;99.90;;;;;;5073915;28;20016;-74
2023/11/19 06:30:57;;;;;;;4.90;1.92;;;3.80;99.90;;;;;;5073871;28;20108;-73
2023/11/19 06:33:24;;;;;;;4.68;1.70;;;3.70;99.90;;;;;;5073941;28;20618;-74
2023/11/19 06:35:50;;;;;;;3.58;1.77;;;3.70;99.90;;;;;;5075256;28;20513;-74
2023/11/19 06:38:16;;;;;;;3.45;2.05;;;3.70;99.90;;;;;;5074882;28;20051;-74
2023/11/19 06:40:41;;;;;;;4.50;1.88;;;3.60;99.90;;;;;;5077890;28;20028;-74
2023/11/19 06:43:08;;;;;;;3.08;1.45;;;3.60;99.90;;;;;;5078890;28;20268;-74
2023/11/19 06:45:36;;;;;;;3.97;2.05;;;3.60;99.90;;;;;;5078144;28;20418;-74
2023/11/19 06:48:03;;;;;;;5.13;1.77;;;3.70;99.90;;;;;;5076517;28;20059;-74
2023/11/19 06:50:29;;;;;;;3.15;1.50;;;3.90;99.90;;;;;;5075476;28;20020;-74
2023/11/19 06:52:55;;;;;;;5.10;1.85;;;4.00;99.90;;;;;;5075760;28;20039;-75
2023/11/19 06:55:20;;;;;;;3.10;1.40;;;4.00;99.90;;;;;;5075628;28;20042;-75
2023/11/19 06:57:46;;;;;;;3.95;1.45;;;4.00;99.90;;;;;;5076001;28;20032;-75
2023/11/19 07:00:12;;;;;;;3.67;1.90;;;4.10;99.90;;;;;;5076309;28;20104;-75
2023/11/19 07:02:39;;;;;;;5.10;2.25;;;4.20;99.90;;;;;;5074430;28;20079;-75
2023/11/19 07:05:05;;;;;;;3.88;1.65;;;4.30;99.80;;;;;;5075170;28;20570;-75
2023/11/19 07:07:35;;;;;;;4.05;1.52;;;4.50;99.60;;;;;;5075877;28;20027;-75
2023/11/19 07:10:02;;;;;;;4.78;2.38;;;4.50;99.90;;;;;;5076064;28;20090;-75
2023/11/19 07:12:28;;;;;;;6.65;3.28;;;4.20;99.90;;;;;;5074708;28;20038;-75
2023/11/19 07:14:55;;;;;;;7.25;3.70;;;4.20;99.90;;;;;;5074884;28;20424;-75
2023/11/19 07:17:20;;;;;;;6.57;3.97;;;4.50;99.90;;;;;;5074694;28;20474;-75
2023/11/19 07:19:50;;;;;;;6.72;3.05;;;4.20;99.90;;;;;;5075473;28;20110;-75
2023/11/19 07:22:15;;;;;;;7.07;3.90;;;3.90;99.90;;;;;;5074155;28;20032;-75
2023/11/19 07:24:41;;;;;;;7.22;3.75;;;3.90;99.90;;;;;;5075659;28;20035;-76
2023/11/19 07:27:08;;;;;;;8.65;5.60;;;3.90;99.90;;;;;;5075068;28;20039;-76
2023/11/19 07:29:37;;;;;;;6.45;3.83;;;3.90;99.90;;;;;;5075414;28;20134;-75
2023/11/19 07:32:04;;;;;;;6.90;4.05;;;4.00;99.90;;;;;;5073952;28;20485;-76
2023/11/19 07:34:30;;;;;;;5.35;3.03;;;3.90;99.90;;;;;;5077154;28;21455;-79
2023/11/19 07:37:02;;;;;;;6.50;3.38;;;3.90;99.90;;;;;;5074104;28;20697;-74
2023/11/19 07:39:28;;;;;;;7.28;4.45;;;3.90;99.90;;;;;;5074570;28;20040;-79
2023/11/19 07:41:53;;;;;;;6.55;3.88;;;3.90;99.90;;;;;;5072966;28;20047;-78
2023/11/19 07:44:21;;;;;;;5.85;3.30;;;3.90;99.90;;;;;;5072998;28;20032;-76
2023/11/19 07:46:47;;;;;;;6.20;3.08;;;3.80;99.90;;;;;;5075004;28;20020;-76
2023/11/19 07:49:13;;;;;;;5.45;2.67;;;3.80;99.90;;;;;;5074906;28;20036;-76
2023/11/19 07:51:39;;;;;;;5.88;1.90;;;3.90;99.90;;;;;;5075065;28;20040;-76
2023/11/19 07:54:05;;;;;;;2.75;1.30;;;4.10;99.90;;;;;;5073761;28;20844;-76
2023/11/19 07:56:34;;;;;;;4.03;1.38;;;4.40;99.90;;;;;;5074862;28;21508;-76
2023/11/19 07:58:59;;;;;;;4.80;1.70;;;5.00;99.90;;;;;;5074711;28;20031;-75
2023/11/19 08:01:25;;;;;;;2.85;1.40;;;5.20;99.90;;;;;;5075124;28;20059;-78
2023/11/19 08:03:51;;;;;;;3.20;1.60;;;5.40;99.80;;;;;;5073841;28;20059;-77
2023/11/19 08:06:17;;;;;;;4.20;2.90;;;5.20;99.90;;;;;;5075033;28;20479;-77
2023/11/19 08:08:42;;;;;;;4.18;2.30;;;5.00;99.90;;;;;;5075744;28;20607;-77
2023/11/19 08:11:08;;;;;;;4.57;2.80;;;5.10;99.90;;;;;;5072464;28;20042;-78
2023/11/19 08:13:34;;;;;;;5.00;2.63;;;5.10;99.90;;;;;;5074550;28;20139;-78
2023/11/19 08:16:00;;;;;;;3.42;1.75;;;4.80;99.90;;;;;;5072252;28;20123;-78
2023/11/19 08:18:25;;;;;;;6.30;1.50;;;5.00;99.90;;;;;;5075128;28;20651;-78
2023/11/19 08:20:53;;;;;;;3.42;1.52;;;5.40;99.90;;;;;;5074769;28;20890;-80
2023/11/19 08:23:20;;;;;;;3.65;1.13;;;5.70;99.90;;;;;;5072245;28;20525;-77
2023/11/19 08:25:46;;;;;;;3.60;1.73;;;5.80;99.00;;;;;;5073364;28;20043;-77
2023/11/19 08:28:12;;;;;;;8.77;1.73;;;5.90;98.60;;;;;;5074682;28;20032;-77
2023/11/19 08:30:38;;;;;;;4.20;1.92;;;6.20;98.90;;;;;;5074669;28;20040;-78
2023/11/19 08:33:05;;;;;;;2.97;1.40;;;6.10;98.80;;;;;;5075020;28;20081;-78
2023/11/19 08:35:31;;;;;;;3.35;1.88;;;6.10;98.70;;;;;;5072202;28;20967;-80
2023/11/19 08:37:57;;;;;;;3.42;1.48;;;5.90;99.70;;;;;;5075396;28;20170;-76
2023/11/19 08:40:23;;;;;;;6.43;3.28;;;5.70;99.50;;;;;;5074685;28;20666;-77
2023/11/19 08:42:48;;;;;;;5.03;1.48;;;5.90;99.40;;;;;;5074027;28;20032;-75
2023/11/19 08:45:14;;;;;;;2.85;1.38;;;6.00;98.80;;;;;;5073967;28;20111;-79
2023/11/19 08:47:40;;;;;;;6.30;1.55;;;6.10;98.90;;;;;;5074901;28;20031;-76
2023/11/19 08:50:06;;;;;;;5.32;1.70;;;6.20;98.90;;;;;;5074093;28;20401;-74
2023/11/19 08:52:32;;;;;;;5.25;2.17;;;6.30;99.30;;;;;;5075367;28;20592;-75
2023/11/19 08:54:58;;;;;;;3.75;1.60;;;6.30;98.40;;;;;;5074814;28;20051;-76
2023/11/19 08:57:23;;;;;;;2.85;1.40;;;6.40;98.50;;;;;;5076371;28;20432;-75
2023/11/19 08:59:49;;;;;;;3.92;1.70;;;6.40;98.40;;;;;;5074496;28;20126;-77
2023/11/19 09:02:15;;;;;;;5.03;2.25;;;6.40;98.50;;;;;;5076872;28;20007;-77
2023/11/19 09:04:41;;;;;;;6.45;2.45;;;6.20;99.80;;;;;;5075090;28;20478;-77
2023/11/19 09:07:08;;;;;;;6.75;4.28;;;6.20;99.90;;;;;;5076451;28;20476;-77
2023/11/19 09:09:35;;;;;;;7.43;5.05;;;6.40;99.30;;;;;;5077266;28;20157;-77
2023/11/19 09:12:01;;;;;;;5.07;2.72;;;6.50;99.20;;;;;;5075496;28;20118;-76
2023/11/19 09:14:27;;;;;;;4.95;2.88;;;6.70;99.30;;;;;;5076191;28;20104;-78
2023/11/19 09:16:52;;;;;;;3.90;2.03;;;6.90;98.70;;;;;;5076191;28;20036;-76
2023/11/19 09:19:18;;;;;;;3.50;1.73;;;7.00;98.60;;;;;;5076668;28;20077;-76
2023/11/19 09:21:44;;;;;;;5.68;2.70;;;7.00;98.40;;;;;;5076509;28;20032;-76
2023/11/19 09:24:10;;;;;;;4.47;2.38;;;6.90;99.30;;;;;;5073513;28;20385;-75
2023/11/19 09:26:36;;;;;;;4.82;2.13;;;6.70;99.80;;;;;;5076312;28;20024;-76
2023/11/19 09:29:02;;;;;;;4.25;1.85;;;6.60;99.20;;;;;;5077070;28;20027;-76
2023/11/19 09:31:27;;;;;;;4.60;1.40;;;6.80;98.40;;;;;;5076315;28;20647;-75
2023/11/19 09:33:53;;;;;;;3.60;1.48;;;6.80;98.40;;;;;;5076589;28;20097;-75
2023/11/19 09:36:19;;;;;;;3.72;1.40;;;6.80;98.30;;;;;;5076499;28;20028;-76
2023/11/19 09:38:45;;;;;;;4.32;1.83;;;6.70;98.00;;;;;;5076960;28;20036;-75
2023/11/19 09:41:13;;;;;;;3.28;1.60;;;6.80;98.10;;;;;;5074376;28;20031;-76
2023/11/19 09:43:42;;;;;;;4.50;2.00;;;6.80;98.50;;;;;;5076562;28;20016;-76
2023/11/19 09:46:15;;;;;;;3.95;1.67;;;6.70;98.90;;;;;;5076869;28;20106;-76
2023/11/19 09:48:42;;;;;;;3.47;1.52;;;6.70;98.80;;;;;;5075914;28;20103;-75
2023/11/19 09:51:11;;;;;;;5.03;1.85;;;6.80;98.30;;;;;;5075724;28;20122;-76
2023/11/19 09:53:38;;;;;;;3.28;1.40;;;6.90;98.00;;;;;;5076496;28;20486;-76
2023/11/19 09:56:05;;;;;;;3.03;1.65;;;7.00;97.90;;;;;;5076115;28;20028;-74
2023/11/19 09:58:31;;;;;;;3.90;1.67;;;7.00;98.10;;;;;;5075214;28;20492;-76
2023/11/19 10:01:10;;;;;;;3.58;1.25;;;7.10;97.50;;;;;;5074747;28;20031;-76
2023/11/19 10:03:38;;;;;;;3.50;1.30;;;7.20;97.40;;;;;;5076188;28;20078;-78
2023/11/19 10:06:06;;;;;;;3.55;1.25;;;7.20;97.40;;;;;;5076619;28;20023;-77
2023/11/19 10:08:32;;;;;;;4.50;1.80;;;7.20;97.90;;;;;;5075841;28;20521;-77
2023/11/19 10:10:59;;;;;;;4.03;1.75;;;7.30;98.00;;;;;;5076252;28;20115;-77
2023/11/19 10:13:29;;;;;;;4.50;2.13;;;7.40;97.90;;;;;;5077420;28;20361;-77
2023/11/19 10:15:55;;;;;;;3.38;1.40;;;7.50;98.20;;;;;;5080303;28;20111;-77
2023/11/19 10:18:26;;;;;;;4.78;2.50;;;7.80;97.30;;;;;;5080685;28;20211;-77
2023/11/19 10:20:53;;;;;;;5.70;2.33;;;7.90;98.50;;;;;;5080411;28;20040;-77
2023/11/19 10:23:19;;;;;;;5.30;2.38;;;7.70;98.70;;;;;;5078273;28;20100;-78
2023/11/19 10:25:45;;;;;;;4.38;2.20;;;7.70;98.50;;;;;;5079338;28;20127;-77
2023/11/19 10:28:10;;;;;;;3.60;1.80;;;7.70;97.90;;;;;;5079838;28;20051;-77
2023/11/19 10:30:36;;;;;;;4.70;2.75;;;7.90;97.40;;;;;;5080178;28;20028;-77
2023/11/19 10:33:19;;;;;;;6.43;3.45;;;8.00;97.50;;;;;;5079982;28;20055;-77
2023/11/19 10:35:59;;;;;;;6.03;2.08;;;8.00;97.70;;;;;;5080276;28;20521;-76
2023/11/19 10:38:26;;;;;;;9.05;2.08;;;8.10;97.80;;;;;;5080091;28;20039;-77
2023/11/19 10:40:54;;;;;;;5.15;2.00;;;8.20;97.60;;;;;;5080239;28;20055;-78
2023/11/19 10:43:23;;;;;;;2.95;1.52;;;8.40;96.70;;;;;;5079317;28;20028;-77
2023/11/19 10:45:49;;;;;;;5.72;2.60;;;8.40;96.50;;;;;;5078534;28;20032;-77
2023/11/19 10:48:15;;;;;;;6.30;2.88;;;8.40;97.30;;;;;;5079369;28;20089;-77
2023/11/19 10:50:43;;;;;;;3.88;2.10;;;8.40;97.30;;;;;;5079344;28;20490;-77
2023/11/19 10:53:10;;;;;;;3.83;2.00;;;8.60;97.60;;;;;;5079678;28;20031;-77
2023/11/19 10:55:40;;;;;;;4.95;2.33;;;8.60;97.10;;;;;;5079229;28;20039;-78
2023/11/19 10:58:08;;;;;;;4.07;2.33;;;8.50;96.80;;;;;;5079962;28;20047;-77
2023/11/19 11:00:39;;;;;;;3.22;1.40;;;8.50;96.80;;;;;;5079814;28;20484;-77
2023/11/19 11:03:26;;;;;;;4.07;1.63;;;8.60;96.30;;;;;;5079729;28;20055;-77
2023/11/19 11:05:53;;;;;;;4.65;1.75;;;8.90;96.40;;;;;;5079436;28;21308;-77
2023/11/19 11:08:20;;;;;;;3.03;1.50;;;8.90;96.30;;;;;;5078916;28;20036;-77
2023/11/19 11:10:53;;;;;;;6.82;2.08;;;9.00;96.20;;;;;;5079488;28;20027;-78
2023/11/19 11:13:19;;;;;;;7.90;4.63;;;9.20;96.10;;;;;;5077325;28;20343;-77
2023/11/19 11:15:46;;;;;;;4.50;2.30;;;9.20;96.20;;;;;;5078227;28;20085;-77
2023/11/19 11:18:13;;;;;;;7.40;2.53;;;9.40;95.60;;;;;;5079545;28;20039;-77
2023/11/19 11:20:39;;;;;;;3.65;1.73;;;9.60;95.70;;;;;;5078808;28;20036;-77
2023/11/19 11:23:42;;;;;;;2.90;1.73;;;9.80;96.50;;;;;;5078901;28;20038;-77
2023/11/19 11:26:14;;;;;;;4.20;1.80;;;9.80;95.70;;;;;;5078724;28;20020;-77
2023/11/19 11:28:58;;;;;;;2.35;1.20;;;9.80;95.60;;;;;;5075073;28;20031;-77
2023/11/19 11:31:26;;;;;;;2.45;1.10;;;9.80;94.60;;;;;;5077702;28;21281;-77
2023/11/19 11:34:17;;;;;;;4.70;2.13;;;9.90;94.80;;;;;;5078304;28;20122;-76
2023/11/19 11:37:06;;;;;;;3.60;1.85;;;10.00;95.80;;;;;;5078921;28;20083;-78
2023/11/19 11:39:33;;;;;;;6.60;1.98;;;10.10;95.60;;;;;;5079825;28;20034;-79
2023/11/19 11:42:22;;;;;;;4.40;1.85;;;10.30;95.80;;;;;;5078556;28;20039;-77
2023/11/19 11:45:39;;;;;;;2.20;1.15;;;10.40;95.40;;;;;;5074509;28;20577;-77
2023/11/19 11:48:15;;;;;;;3.60;1.55;;;10.30;94.00;;;;;;5055870;28;20044;-77
2023/11/19 11:50:54;;;;;;;1.98;1.15;;;10.20;94.30;;;;;;5055139;28;20150;-76
2023/11/19 11:53:24;;;;;;;2.47;1.48;;;10.30;94.30;;;;;;5069996;28;20052;-78
2023/11/19 11:55:49;;;;;;;3.78;1.48;;;10.40;94.40;;;;;;5078237;28;20032;-79
2023/11/19 11:58:25;;;;;;;2.95;0.93;;;10.30;94.30;;;;;;5078106;28;20034;-77
2023/11/19 12:00:52;;;;;;;3.15;1.10;;;10.30;93.90;;;;;;5077656;28;20035;-79
2023/11/19 12:03:21;;;;;;;3.65;1.52;;;10.40;93.80;;;;;;5077952;28;20056;-77
2023/11/19 12:05:48;;;;;;;2.38;1.17;;;10.40;93.80;;;;;;5078398;28;20027;-77
2023/11/19 12:08:20;;;;;;;2.60;1.25;;;10.30;93.70;;;;;;5078145;28;20036;-76
2023/11/19 12:10:53;;;;;;;7.78;3.10;;;10.40;94.60;;;;;;5078218;28;20035;-76
2023/11/19 12:13:23;;;;;;;4.60;1.80;;;10.50;94.20;;;;;;5078609;28;20080;-77
2023/11/19 12:15:57;;;;;;;3.60;1.60;;;10.60;94.20;;;;;;5078132;28;20032;-77
2023/11/19 12:18:27;;;;;;;4.10;1.92;;;10.70;94.40;;;;;;5078117;28;20040;-77
2023/11/19 12:20:53;;;;;;;4.22;1.83;;;10.70;94.30;;;;;;5074324;28;20599;-77
2023/11/19 12:23:19;;;;;;;5.03;1.95;;;10.70;94.20;;;;;;5077643;28;20036;-77
2023/11/19 12:25:47;;;;;;;7.65;3.80;;;10.80;94.30;;;;;;5077410;28;20036;-77
2023/11/19 12:28:17;;;;;;;6.35;3.03;;;10.80;94.30;;;;;;5077455;28;20035;-77
2023/11/19 12:30:43;;;;;;;9.45;4.18;;;10.90;94.30;;;;;;5078223;28;20028;-77
2023/11/19 12:33:10;;;;;;;7.57;3.17;;;10.90;94.10;;;;;;5077411;28;20394;-77
2023/11/19 12:35:47;;;;;;;5.75;2.60;;;10.80;94.80;;;;;;5076919;28;21310;-77
2023/11/19 12:38:22;;;;;;;5.38;2.72;;;10.80;94.00;;;;;;5077221;28;20059;-77
2023/11/19 12:41:06;;;;;;;10.70;4.70;;;10.80;94.60;;;;;;5077269;28;20669;-77
2023/11/19 12:43:34;;;;;;;6.97;2.50;;;10.90;94.50;;;;;;5076810;28;20028;-77
2023/11/19 12:46:00;;;;;;;3.88;2.00;;;10.90;94.30;;;;;;5077221;28;20020;-77
2023/11/19 12:48:25;;;;;;;12.52;4.72;;;10.70;94.40;;;;;;5076751;28;20381;-76
2023/11/19 12:50:57;;;;;;;6.78;3.42;;;10.80;94.30;;;;;;5076649;28;20122;-77
2023/11/19 12:53:23;;;;;;;7.07;2.55;;;10.90;94.40;;;;;;5078079;28;20063;-76
2023/11/19 12:55:49;;;;;;;2.92;1.55;;;10.90;94.30;;;;;;5077691;28;20036;-77
2023/11/19 12:58:29;;;;;;;5.30;2.10;;;10.80;94.10;;;;;;5076307;28;20197;-77